Date,TemperatureHighF,TemperatureAvgF,TemperatureLowF,DewpointHighF,DewpointAvgF,DewpointLowF,HumidityHigh,HumidityAvg,HumidityLow,PressureMaxIn,PressureMinIn,WindSpeedMaxMPH,WindSpeedAvgMPH,GustSpeedMaxMPH,PrecipitationSumIn
2013-9-1,80,72,67,70,67,61,100,85,57,29.82,29.73,4,0,6,0.00
2013-9-2,82,72,64,75,66,55,100,84,43,29.76,29.64,8,1,16,0.00
2013-9-3,67,64,61,59,56,50,91,75,59,29.91,29.76,10,3,14,0.00
2013-9-4,77,66,54,63,52,36,100,66,22,29.97,29.91,9,3,17,0.00
2013-9-5,68,59,49,61,38,-100,100,64,27,30.20,29.94,4,0,10,0.00
2013-9-6,71,57,43,50,41,32,100,61,24,30.29,30.08,6,0,9,0.00
2013-9-7,64,58,53,63,55,48,100,87,71,30.08,29.85,6,0,10,0.00
2013-9-8,68,62,50,66,47,32,100,66,27,30.11,29.82,5,0,9,0.00
2013-9-9,77,60,45,63,48,39,100,70,33,30.14,29.94,6,0,9,0.00
2013-9-10,91,78,66,75,67,59,100,72,40,29.97,29.88,10,2,17,0.00
2013-9-11,92,81,74,75,68,55,97,70,30,30.03,29.88,8,2,12,0.00
2013-9-12,74,69,61,70,66,61,100,90,73,29.91,29.70,7,1,11,0.00
2013-9-13,61,55,50,61,54,46,100,96,81,30.00,29.73,3,0,8,0.00
2013-9-14,63,52,47,50,34,-100,100,70,33,30.11,30.00,6,0,10,0.00
2013-9-15,68,56,45,52,45,41,97,71,39,30.14,30.03,5,0,10,0.00
2013-9-16,54,51,44,55,50,43,100,98,91,30.38,30.06,3,0,6,0.00
2013-9-17,65,51,38,52,21,-100,100,64,30,30.50,30.29,5,0,6,0.00
2013-9-18,74,57,44,52,36,-100,100,62,21,30.29,30.08,5,0,6,0.00
2013-9-19,78,63,51,59,49,41,100,67,28,30.11,30.00,4,0,8,0.00
2013-9-20,84,69,57,63,57,52,100,71,34,30.00,29.73,5,0,9,0.00
2013-9-21,71,64,54,63,59,54,100,87,58,29.76,29.61,6,0,10,0.00
2013-9-22,57,52,50,54,43,32,100,73,40,30.00,29.70,5,2,11,0.00
2013-9-23,60,52,44,45,35,-100,84,60,35,30.14,30.00,4,0,6,0.00
2013-9-24,67,52,39,57,17,-100,100,62,28,30.14,30.00,4,0,5,0.00
2013-9-25,70,54,42,55,41,32,100,69,25,30.00,29.94,4,0,7,0.00
2013-9-26,71,56,44,57,46,43,100,73,39,30.14,29.97,4,0,6,0.00
2013-9-27,67,55,46,61,49,45,100,81,49,30.26,30.14,4,0,6,0.00
2013-9-28,73,59,45,63,48,43,100,73,35,30.29,30.17,4,0,6,0.00
2013-9-29,75,61,48,55,46,41,100,65,29,30.17,29.97,5,0,11,0.00
2013-9-30,77,64,56,59,53,48,91,69,40,30.00,29.91,5,0,6,0.00